18 Северо-Васюганская

Карта отелей и гостиниц, располагающихся рядом с аэропортом 18 Северо-Васюганская :

18 Северо-Васюганская Томская область 59° 21' 30.42" N, 78° 21' 37.44" E
18 Северо-Васюганская Томская область 59° 21' 30.42" N, 78° 21' 37.44" E
Код аэродрома ИКАО
UNSW
Код аэродрома RU
УНСВ
Координаты
N59.35845° E078.36040°
Превышение над уровнем моря
80
Основная полоса
04/22
Курс магнитный
035,1/215,1
Длина основной ВПП
78
Ширина основной ВПП
20
Покрытие основной ВПП
Твёрдое
Освещение ВПП
Нет
Тип: 
Вертодром
Класс аэродрома: 
Принадлежность: 
ГА
Статус: 
Действующий
Сайт: 
E-mail аэродрома: 
Страна: 
Россия
Регион: 
Томская область
Город: 
Дополнительная информация: 
Оператор: нет данных. PCN 14/R/B/W/U.


Найти трансфер

С помощью этой формы Вы можете найти трансфер из аэропорта 18 Северо-Васюганская в город, аэропорт или вокзал:

Погода в аэропортах:

Авиационная погода в Ботсфьорде

Регион: 
Погода METAR: 
ENBS 290720Z AUTO 02011KT 0100 FG VV001 03/03 Q1016
Время наблюдения
2022-05-29T07:20:00Z
Температура C
3.0
Точка росы
3.0
Направление ветра
20
Скорость ветра (узлы)
11
Метео видимость
0.06
Облачность
OVX
Нижняя граница облачности (футы)
0
Явления погоды
FG
Условия полета
LIFR
FG – туман (небо не видно, температура воздуха выше нуля или ноль);

Авиационная погода в Киркенесе

Регион: 
Погода METAR: 
ENKR 290720Z 04012KT 2300 -DZ BR BKN002 04/04 Q1015 RMK WIND 731FT 05024KT
Время наблюдения
2022-05-29T07:20:00Z
Температура C
4.0
Точка росы
4.0
Направление ветра
40
Скорость ветра (узлы)
12
Метео видимость
1.43
Облачность
BKN
Нижняя граница облачности (футы)
200
Явления погоды
-DZ BR
Условия полета
LIFR
BKN – значительная (рассеянная, разорванная) облачность;
-DZ – слабая морось; BR – дымка (видимость от 1 до 9 км);

Авиационная погода в Мурманске

Регион: 
Погода METAR: 
ULMM 290730Z 02004MPS 3300 -SHRA BR BKN002 BKN030CB 04/04 Q1012 R31/290160 NOSIG RMK QBB060 OBST OBSC QFE752
Облачность
BKN
BKN
Нижняя граница облачности (футы)
200
3000
Время наблюдения
2022-05-29T07:30:00Z
Температура C
4.0
Точка росы
4.0
Направление ветра
20
Скорость ветра (узлы)
8
Метео видимость
2.05
Явления погоды
-SHRA BR
Условия полета
LIFR
Аэропорт подробнее: 

Авиационная погода в Бухте Провидения

Погода METAR: 
UHMD 270400Z 18005MPS 6000 BCFG SCT006 02/00 Q1016 RMK QBB200 MT OBSC QFE761/1015
Время наблюдения
2022-05-27T04:00:00Z
Температура C
2.0
Точка росы
0.0
Направление ветра
180
Скорость ветра (узлы)
10
Метео видимость
3.73
Облачность
SCT
Нижняя граница облачности (футы)
600
Явления погоды
BCFG
Условия полета
MVFR
Аэропорт подробнее: 
SCT – разбросанная отдельная облачность;
FG – туман (небо не видно, температура воздуха выше нуля или ноль);